createdAt,value
2019-02-17T00:02:57.092Z,3.77
2019-02-17T00:07:32.878Z,1.57
2019-02-17T00:12:08.637Z,0.80
2019-02-17T00:16:44.428Z,0.70
2019-02-17T00:21:20.284Z,0.57
2019-02-17T00:25:56.146Z,0.80
2019-02-17T00:30:31.917Z,0.82
2019-02-17T00:35:08.114Z,0.60
2019-02-17T00:39:43.905Z,0.85
2019-02-17T00:44:19.780Z,0.88
2019-02-17T00:48:55.561Z,0.80
2019-02-17T00:53:31.341Z,0.65
2019-02-17T00:58:07.106Z,0.90
2019-02-17T01:02:42.897Z,0.78
2019-02-17T01:07:18.648Z,0.60
2019-02-17T01:11:54.442Z,1.30
2019-02-17T01:16:30.197Z,0.45
2019-02-17T01:21:06.017Z,1.15
2019-02-17T01:25:41.786Z,0.98
2019-02-17T01:30:17.561Z,0.65
2019-02-17T01:34:53.328Z,0.60
2019-02-17T01:39:29.147Z,0.57
2019-02-17T01:44:05.273Z,0.70
2019-02-17T01:48:41.099Z,0.68
2019-02-17T01:53:16.857Z,0.53
2019-02-17T01:57:52.629Z,0.57
2019-02-17T02:02:28.409Z,0.60
2019-02-17T02:07:04.197Z,0.62
2019-02-17T02:11:39.965Z,0.90
2019-02-17T02:16:15.733Z,0.50
2019-02-17T02:20:51.499Z,0.50
2019-02-17T02:25:27.268Z,0.68
2019-02-17T02:30:03.034Z,0.68
2019-02-17T02:34:36.987Z,0.75
2019-02-17T02:39:12.807Z,0.60
2019-02-17T02:43:48.577Z,0.68
2019-02-17T02:48:24.345Z,0.60
2019-02-17T02:53:00.171Z,0.45
2019-02-17T02:57:35.969Z,0.62
2019-02-17T03:02:11.744Z,0.68
2019-02-17T03:07:08.921Z,0.62
2019-02-17T03:11:44.758Z,1.10
2019-02-17T03:16:20.521Z,0.70
2019-02-17T03:20:56.313Z,0.62
2019-02-17T03:25:32.052Z,0.60
2019-02-17T03:30:09.123Z,0.60
2019-02-17T03:34:44.957Z,2.12
2019-02-17T03:39:20.767Z,0.50
2019-02-17T03:43:56.589Z,0.70
2019-02-17T03:48:32.365Z,0.73
2019-02-17T03:53:08.176Z,0.82
2019-02-17T03:57:43.960Z,0.50
2019-02-17T04:02:19.717Z,0.60
2019-02-17T04:06:55.589Z,0.60
2019-02-17T04:11:31.483Z,0.70
2019-02-17T04:16:06.745Z,0.60
2019-02-17T04:20:42.493Z,0.50
2019-02-17T04:25:18.300Z,0.57
2019-02-17T04:29:54.089Z,0.70
2019-02-17T04:34:29.931Z,0.40
2019-02-17T04:39:06.884Z,0.50
2019-02-17T04:43:42.683Z,0.60
2019-02-17T04:48:18.445Z,0.40
2019-02-17T04:52:54.222Z,0.77
2019-02-17T04:57:30.008Z,0.60
2019-02-17T05:02:05.806Z,0.75
2019-02-17T05:06:41.566Z,0.53
2019-02-17T05:11:17.437Z,0.70
2019-02-17T05:15:53.201Z,0.60
2019-02-17T05:20:28.974Z,0.68
2019-02-17T05:25:04.999Z,0.75
2019-02-17T05:29:40.787Z,0.67
2019-02-17T05:34:16.555Z,0.60
2019-02-17T05:38:52.330Z,0.50
2019-02-17T05:43:28.157Z,0.57
2019-02-17T05:48:05.797Z,1.07
2019-02-17T05:52:41.541Z,0.55
2019-02-17T05:57:17.320Z,0.57
2019-02-17T06:01:53.095Z,3.03
2019-02-17T06:06:28.873Z,0.80
2019-02-17T06:11:04.636Z,0.57
2019-02-17T06:15:40.427Z,0.90
2019-02-17T06:20:16.176Z,1.10
2019-02-17T06:24:51.958Z,0.73
2019-02-17T06:29:27.713Z,0.90
2019-02-17T06:34:03.494Z,0.53
2019-02-17T06:38:39.337Z,0.55
2019-02-17T06:43:16.575Z,0.80
2019-02-17T06:47:52.322Z,1.83
2019-02-17T06:52:28.096Z,1.22
2019-02-17T06:57:26.639Z,2.40
2019-02-17T07:02:02.468Z,1.67
2019-02-17T07:06:48.690Z,0.78
2019-02-17T07:11:24.487Z,1.00
2019-02-17T07:16:00.251Z,0.97
2019-02-17T07:20:36.026Z,1.00
2019-02-17T07:25:11.780Z,1.53
2019-02-17T07:29:47.565Z,2.03
2019-02-17T07:34:23.328Z,0.93
2019-02-17T07:38:59.115Z,0.70
2019-02-17T07:43:34.869Z,2.90
2019-02-17T07:48:10.647Z,1.12
2019-02-17T07:52:46.476Z,0.98
2019-02-17T07:57:22.266Z,1.15
2019-02-17T08:01:58.041Z,1.85
2019-02-17T08:06:33.847Z,1.27
2019-02-17T08:11:09.621Z,1.80
2019-02-17T08:15:45.401Z,9.43
2019-02-17T08:20:21.214Z,2.50
2019-02-17T08:24:57.021Z,1.20
2019-02-17T08:29:32.776Z,3.17
2019-02-17T08:34:08.565Z,4.10
2019-02-17T08:38:44.323Z,1.95
2019-02-17T08:43:20.097Z,4.00
2019-02-17T08:47:55.869Z,1.55
2019-02-17T08:52:31.657Z,1.50
2019-02-17T08:57:07.411Z,1.20
2019-02-17T09:01:43.205Z,5.15
2019-02-17T09:06:18.986Z,2.30
2019-02-17T09:10:54.795Z,0.88
2019-02-17T09:15:31.194Z,0.85
2019-02-17T09:20:09.647Z,0.50
2019-02-17T09:24:45.456Z,1.05
2019-02-17T09:29:21.233Z,0.55
2019-02-17T09:33:57.000Z,1.90
2019-02-17T09:38:32.785Z,1.02
2019-02-17T09:43:08.549Z,0.75
2019-02-17T09:47:44.357Z,1.50
2019-02-17T09:52:20.122Z,1.30
2019-02-17T09:56:58.820Z,0.72
2019-02-17T10:01:42.673Z,0.98
2019-02-17T10:06:19.276Z,0.90
2019-02-17T10:10:55.137Z,0.50
2019-02-17T10:15:30.920Z,0.85
2019-02-17T10:20:10.846Z,0.68
2019-02-17T10:24:46.170Z,0.50
2019-02-17T10:29:23.766Z,0.72
2019-02-17T10:33:59.759Z,0.60
2019-02-17T10:38:37.523Z,0.57
2019-02-17T10:43:13.314Z,0.72
2019-02-17T10:47:49.100Z,0.93
2019-02-17T10:52:26.361Z,0.80
2019-02-17T11:01:38.094Z,0.60
2019-02-17T11:06:13.873Z,0.40
2019-02-17T11:10:49.663Z,0.60
2019-02-17T11:15:25.458Z,0.70
2019-02-17T11:20:01.247Z,0.50
2019-02-17T11:24:37.104Z,0.82
2019-02-17T11:29:12.918Z,0.78
2019-02-17T11:33:49.071Z,0.70
2019-02-17T11:38:25.216Z,0.68
2019-02-17T11:43:00.993Z,0.37
2019-02-17T11:47:38.022Z,0.57
2019-02-17T11:52:13.792Z,0.40
2019-02-17T11:56:49.576Z,0.65
2019-02-17T12:01:25.640Z,0.68
2019-02-17T12:06:01.434Z,0.60
2019-02-17T12:10:37.203Z,0.57
2019-02-17T12:15:15.384Z,0.50
2019-02-17T12:19:52.735Z,0.50
2019-02-17T12:25:02.633Z,0.40
2019-02-17T12:29:50.877Z,0.68
2019-02-17T12:34:26.680Z,0.30
2019-02-17T12:39:02.535Z,0.55
2019-02-17T12:43:40.289Z,0.40
2019-02-17T12:48:16.061Z,0.50
2019-02-17T12:52:51.853Z,0.53
2019-02-17T12:57:27.613Z,0.40
2019-02-17T13:02:03.400Z,0.40
2019-02-17T13:06:39.158Z,0.40
2019-02-17T13:11:14.948Z,0.55
2019-02-17T13:15:50.737Z,0.55
2019-02-17T13:20:26.568Z,0.50
2019-02-17T13:25:02.341Z,0.47
2019-02-17T13:29:40.204Z,0.60
2019-02-17T13:34:15.591Z,0.70
2019-02-17T13:38:51.401Z,0.47
2019-02-17T13:43:27.165Z,0.50
2019-02-17T13:48:02.962Z,0.60
2019-02-17T13:52:38.728Z,0.80
2019-02-17T13:57:14.516Z,1.00
2019-02-17T14:01:50.296Z,0.88
2019-02-17T14:06:26.109Z,0.70
2019-02-17T14:11:01.885Z,0.70
2019-02-17T14:15:37.698Z,0.55
2019-02-17T14:20:13.464Z,0.70
2019-02-17T14:24:49.595Z,0.80
2019-02-17T14:29:26.461Z,0.93
2019-02-17T14:34:02.277Z,0.85
2019-02-17T14:38:38.090Z,0.80
2019-02-17T14:43:13.872Z,1.55
2019-02-17T14:47:49.644Z,0.90
2019-02-17T14:52:25.424Z,1.17
2019-02-17T14:57:01.188Z,1.00
2019-02-17T15:01:36.996Z,1.20
2019-02-17T15:06:12.762Z,0.80
2019-02-17T15:10:48.030Z,1.07
2019-02-17T15:15:23.865Z,0.98
2019-02-17T15:19:59.661Z,0.80
2019-02-17T15:24:36.903Z,0.80
2019-02-17T15:29:12.729Z,1.45
2019-02-17T15:33:48.489Z,2.40
2019-02-17T15:38:24.277Z,2.27
2019-02-17T15:43:00.066Z,2.58
2019-02-17T15:47:35.859Z,2.60
2019-02-17T15:52:11.655Z,2.72
2019-02-17T15:56:47.460Z,2.75
2019-02-17T16:01:23.228Z,3.92
2019-02-17T16:05:59.073Z,3.45
2019-02-17T16:10:34.848Z,3.27
2019-02-17T16:15:13.097Z,3.83
2019-02-17T16:19:48.866Z,5.30
2019-02-17T16:24:24.949Z,6.03
2019-02-17T16:29:00.853Z,5.85
2019-02-17T16:33:36.668Z,6.58
2019-02-17T16:38:12.467Z,9.95
2019-02-17T16:42:48.268Z,14.15
2019-02-17T16:47:24.044Z,10.72
2019-02-17T16:51:59.842Z,5.22
2019-02-17T16:56:35.603Z,6.55
2019-02-17T17:01:11.401Z,5.80
2019-02-17T17:05:47.189Z,6.83
2019-02-17T17:10:23.034Z,4.40
2019-02-17T17:14:58.847Z,3.55
2019-02-17T17:19:34.712Z,3.87
2019-02-17T17:24:10.516Z,4.25
2019-02-17T17:28:46.309Z,3.40
2019-02-17T17:33:22.082Z,3.45
2019-02-17T17:37:57.888Z,3.25
2019-02-17T17:42:33.641Z,3.62
2019-02-17T17:47:11.303Z,3.40
2019-02-17T17:51:47.027Z,3.58
2019-02-17T17:56:23.045Z,4.55
2019-02-17T18:00:58.816Z,3.27
2019-02-17T18:05:34.592Z,3.98
2019-02-17T18:10:13.946Z,4.40
2019-02-17T18:14:50.241Z,2.98
2019-02-17T18:19:25.996Z,3.25
2019-02-17T18:24:01.795Z,2.35
2019-02-17T18:28:39.292Z,2.37
2019-02-17T18:33:13.157Z,4.17
2019-02-17T18:37:48.945Z,3.87
2019-02-17T18:42:24.801Z,5.03
2019-02-17T18:47:00.589Z,3.35
2019-02-17T18:51:36.608Z,2.92
2019-02-17T18:56:12.398Z,3.83
2019-02-17T19:00:48.274Z,6.12
2019-02-17T19:05:31.601Z,5.00
2019-02-17T19:10:01.612Z,6.30
2019-02-17T19:14:37.469Z,6.05
2019-02-17T19:19:13.424Z,3.15
2019-02-17T19:23:50.404Z,4.92
2019-02-17T19:28:26.415Z,4.45
2019-02-17T19:33:02.240Z,7.22
2019-02-17T19:37:38.025Z,3.50
2019-02-17T19:42:13.809Z,8.43
2019-02-17T19:46:49.674Z,3.67
2019-02-17T19:51:25.666Z,3.15
2019-02-17T19:56:01.472Z,2.45
2019-02-17T20:00:37.425Z,2.35
2019-02-17T20:05:16.928Z,3.02
2019-02-17T20:09:52.708Z,13.43
2019-02-17T20:14:28.507Z,10.58
2019-02-17T20:19:04.358Z,6.22
2019-02-17T20:23:40.162Z,3.83
2019-02-17T20:28:15.944Z,2.12
2019-02-17T20:32:51.712Z,1.47
2019-02-17T20:37:27.482Z,1.70
2019-02-17T20:42:03.258Z,1.15
2019-02-17T20:46:39.033Z,1.45
2019-02-17T20:51:14.911Z,1.02
2019-02-17T20:55:52.974Z,1.45
2019-02-17T21:00:29.336Z,1.37
2019-02-17T21:05:05.858Z,1.02
2019-02-17T21:09:43.424Z,1.27
2019-02-17T21:14:19.184Z,1.50
2019-02-17T21:18:54.983Z,2.62
2019-02-17T21:23:30.732Z,1.55
2019-02-17T21:28:06.518Z,1.12
2019-02-17T21:32:42.297Z,1.25
2019-02-17T21:37:18.096Z,4.53
2019-02-17T21:41:53.937Z,3.55
2019-02-17T21:46:29.726Z,2.00
2019-02-17T21:51:05.505Z,1.47
2019-02-17T21:55:41.398Z,0.80
2019-02-17T22:00:18.767Z,0.90
2019-02-17T22:04:54.588Z,1.05
2019-02-17T22:09:30.357Z,1.00
2019-02-17T22:14:06.225Z,1.00
2019-02-17T22:18:41.973Z,1.05
2019-02-17T22:23:17.786Z,7.75
2019-02-17T22:27:53.577Z,3.47
2019-02-17T22:32:29.410Z,7.83
2019-02-17T22:37:05.194Z,2.50
2019-02-17T22:41:40.990Z,0.80
2019-02-17T22:46:16.955Z,4.22
2019-02-17T22:50:52.734Z,5.97
2019-02-17T22:55:28.508Z,13.00
2019-02-17T23:00:06.317Z,3.87
2019-02-17T23:04:42.096Z,1.20
2019-02-17T23:09:18.664Z,0.82
2019-02-17T23:13:54.444Z,2.40
2019-02-17T23:18:30.243Z,1.67
2019-02-17T23:23:06.074Z,1.80
2019-02-17T23:27:41.916Z,1.52
2019-02-17T23:32:17.677Z,1.47
2019-02-17T23:36:53.463Z,0.95
2019-02-17T23:41:29.220Z,0.70
2019-02-17T23:46:05.005Z,0.82
2019-02-17T23:50:40.765Z,0.85
2019-02-17T23:55:16.544Z,0.90
2019-02-17T23:59:52.310Z,0.78
